MSC Charleston — DDFT2 — position and weather

sailwx.info

Track history (hours):
 
Tides and Currents Weather Stations Pressure Air Temp Water Temp Dewpoint Dewpoint Depression Visibility Wind Speed Wind Dir Waves Ship Positions

MSC Charleston

Last reported at 2018-May-21 18:28 UTC. Time now 2018-May-23 11:06 UTC.
Position N 29°55' W 090°06'.

Length 325 m; draft 10.5 m.

Type: Ship (hazmat cat B). MMSI: 218582000.

Date/timePositionNaut miles runAvg speedWind from/ knotsBaromVisibWave heightAir tempDewpointWater temp
2018-May-21 18:28N 29°55' W 090°06'302 7.1
2018-May-20 00:00N 25°48' W 093°24'11312.5 100 / 141012.5 5.4 27.427.427.9
2018-May-19 15:00N 24°36' W 095°00'4113.5 120 / 161012.010.8 28.224.127.7
2018-May-19 12:00N 24°12' W 095°36'3612.1 120 / 171009.610.8 26.323.427.8
2018-May-19 09:00N 23°48' W 096°06'11813.1 130 / 151010.410.8 26.923.627.7
2018-May-19 00:00N 22°30' W 097°42'182 5.5 110 / 141007.1 5.4 27.227.226.3
2018-May-17 15:00N 19°48' W 096°12'2613.9 130 / 51012.910.8 28.521.428.7
2018-May-17 13:07N 19°24' W 096°00'217.5
2018-May-17 13:01N 19°23' W 095°59'815.5
2018-May-17 12:30N 19°15' W 095°58'713.8
2018-May-17 12:00N 19°11' W 096°04'4 7.7
2018-May-17 11:30N 19°12' W 096°08'0 0.6
2018-May-17 11:00N 19°13' W 096°08'0 0.0
2018-May-17 10:30N 19°13' W 096°08'0 0.0
2018-May-17 09:36N 19°13' W 096°08'0 0.0
2018-May-17 09:30N 19°13' W 096°08'0 0.0
2018-May-17 08:57N 19°13' W 096°08'0 0.0
2018-May-17 08:18N 19°13' W 096°08'0 0.0
2018-May-17 07:54N 19°13' W 096°08'0 0.0
2018-May-17 07:09N 19°13' W 096°08'0 0.0
2018-May-17 07:00N 19°13' W 096°08'0 0.0
2018-May-17 06:30N 19°13' W 096°08'0 0.0
2018-May-17 06:00N 19°13' W 096°08'0 0.0
2018-May-17 05:30N 19°13' W 096°08'0 0.0
2018-May-17 04:57N 19°13' W 096°08'0 0.0
2018-May-17 04:30N 19°13' W 096°08'0 0.0
2018-May-17 04:00N 19°13' W 096°08'0 0.0
2018-May-17 03:27N 19°13' W 096°08'0 0.0
2018-May-17 03:00N 19°13' W 096°08'0 0.0
2018-May-17 02:27N 19°13' W 096°08'0 0.0
2018-May-17 01:45N 19°13' W 096°08'0 0.0
2018-May-17 01:30N 19°13' W 096°08'0 0.0
2018-May-17 00:57N 19°13' W 096°08'0 0.0
2018-May-17 00:27N 19°13' W 096°08'0 0.0
2018-May-16 23:57N 19°13' W 096°08'0 0.0
2018-May-16 23:21N 19°13' W 096°08'0 0.0
2018-May-16 23:00N 19°13' W 096°08'0 0.0
2018-May-16 22:24N 19°13' W 096°08'0 0.0
2018-May-16 21:54N 19°13' W 096°08'0 0.0
2018-May-16 21:15N 19°13' W 096°08'0 0.0
2018-May-16 21:00N 19°13' W 096°08'0 0.0
2018-May-16 20:30N 19°13' W 096°08'0 0.0
2018-May-16 19:54N 19°13' W 096°08'0 0.0
2018-May-16 19:30N 19°13' W 096°08'0 0.0
2018-May-16 18:54N 19°13' W 096°08'0 0.0
2018-May-16 18:18N 19°13' W 096°08'0 0.0
2018-May-16 18:00N 19°13' W 096°08'0 0.0
2018-May-16 17:30N 19°13' W 096°08'0 0.0
2018-May-16 17:00N 19°13' W 096°08'0 0.0
2018-May-16 16:30N 19°13' W 096°08'0 0.7
2018-May-16 16:00N 19°12' W 096°08'4 7.3
2018-May-16 15:30N 19°12' W 096°04'4 8.1
2018-May-16 14:58N 19°13' W 095°60'510.8
2018-May-16 14:30N 19°14' W 095°55'713.7
2018-May-16 14:00N 19°15' W 095°47'4019.7
2018-May-16 12:00N 19°36' W 095°12'5418.1 100 / 81012.510.8 26.021.727.6
2018-May-16 09:00N 20°06' W 094°24'50918.9 080 / 111011.710.8 25.220.328.8
2018-May-15 06:00N 23°12' W 085°54'12220.3 190 / 151011.010.8 26.521.529.0
2018-May-15 00:00N 23°24' W 083°42'23319.4 180 / 121011.8 5.4 26.226.227.4
2018-May-14 12:00N 24°42' W 079°42'116 3.0 130 / 201013.810.8 25.722.027.6
2018-May-12 21:00N 26°30' W 078°54'6220.7 050 / 141018.8 5.4 24.824.827.2
2018-May-12 18:00N 27°30' W 079°12'6622.0 080 / 151020.410.8 25.020.727.4
2018-May-12 15:00N 28°36' W 079°12'6421.2 080 / 101022.210.8 25.517.227.1
2018-May-12 12:00N 29°36' W 079°36'9519.5 110 / 61021.110.8 25.917.727.7
2018-May-12 07:08N 31°05' W 080°12'321.1
2018-May-12 06:58N 31°09' W 080°13'1021.3
2018-May-12 06:30N 31°18' W 080°18'1121.4
2018-May-12 06:00N 31°27' W 080°23'3413.7
2018-May-12 06:00N 31°24' W 080°24'1427.8 160 / 121019.410.8 23.421.323.0
2018-May-12 05:30N 31°37' W 080°29'917.8
2018-May-12 05:00N 31°45' W 080°33'815.2
2018-May-12 04:30N 31°52' W 080°37'714.6
2018-May-12 04:00N 31°58' W 080°42'612.5
2018-May-12 03:30N 32°01' W 080°48'612.2
2018-May-12 03:00N 32°02' W 080°55'611.8
2018-May-12 02:30N 32°06' W 081°01'4 7.6
2018-May-12 02:00N 32°05' W 081°05'3 5.9
2018-May-12 01:30N 32°07' W 081°08'0 0.6
2018-May-12 01:00N 32°07' W 081°08'0 0.0
2018-May-12 00:28N 32°07' W 081°08'0 0.0
2018-May-11 23:58N 32°07' W 081°08'0 0.0
2018-May-11 23:28N 32°07' W 081°08'0 0.0
2018-May-11 22:52N 32°07' W 081°08'0 0.0
2018-May-11 22:28N 32°07' W 081°08'0 0.0
2018-May-11 21:52N 32°07' W 081°08'0 0.0
2018-May-11 21:28N 32°07' W 081°08'0 0.0
2018-May-11 20:52N 32°07' W 081°08'0 0.0
2018-May-11 20:28N 32°07' W 081°08'0 0.0
2018-May-11 19:58N 32°07' W 081°08'0 0.0
2018-May-11 19:28N 32°07' W 081°08'0 0.0
2018-May-11 18:58N 32°07' W 081°08'0 0.0
2018-May-11 18:28N 32°07' W 081°08'  
Track history (hours):
 
Tides and Currents Weather Stations Pressure Air Temp Water Temp Dewpoint Dewpoint Depression Visibility Wind Speed Wind Dir Waves Ship Positions

MSC Charleston

Last reported at 2018-May-21 18:28 UTC. Time now 2018-May-23 11:06 UTC.
Position N 29°55' W 090°06'.

Length 325 m; draft 10.5 m.

Type: Ship (hazmat cat B). MMSI: 218582000.

Date/timePositionNaut miles runAvg speedWind from/ knotsBaromVisibWave heightAir tempDewpointWater temp
2018-May-21 18:28N 29°55' W 090°06'302 7.1
2018-May-20 00:00N 25°48' W 093°24'11312.5 100 / 141012.5 5.4 27.427.427.9
2018-May-19 15:00N 24°36' W 095°00'4113.5 120 / 161012.010.8 28.224.127.7
2018-May-19 12:00N 24°12' W 095°36'3612.1 120 / 171009.610.8 26.323.427.8
2018-May-19 09:00N 23°48' W 096°06'11813.1 130 / 151010.410.8 26.923.627.7
2018-May-19 00:00N 22°30' W 097°42'182 5.5 110 / 141007.1 5.4 27.227.226.3
2018-May-17 15:00N 19°48' W 096°12'2613.9 130 / 51012.910.8 28.521.428.7
2018-May-17 13:07N 19°24' W 096°00'217.5
2018-May-17 13:01N 19°23' W 095°59'815.5
2018-May-17 12:30N 19°15' W 095°58'713.8
2018-May-17 12:00N 19°11' W 096°04'4 7.7
2018-May-17 11:30N 19°12' W 096°08'0 0.6
2018-May-17 11:00N 19°13' W 096°08'0 0.0
2018-May-17 10:30N 19°13' W 096°08'0 0.0
2018-May-17 09:36N 19°13' W 096°08'0 0.0
2018-May-17 09:30N 19°13' W 096°08'0 0.0
2018-May-17 08:57N 19°13' W 096°08'0 0.0
2018-May-17 08:18N 19°13' W 096°08'0 0.0
2018-May-17 07:54N 19°13' W 096°08'0 0.0
2018-May-17 07:09N 19°13' W 096°08'0 0.0
2018-May-17 07:00N 19°13' W 096°08'0 0.0
2018-May-17 06:30N 19°13' W 096°08'0 0.0
2018-May-17 06:00N 19°13' W 096°08'0 0.0
2018-May-17 05:30N 19°13' W 096°08'0 0.0
2018-May-17 04:57N 19°13' W 096°08'0 0.0
2018-May-17 04:30N 19°13' W 096°08'0 0.0
2018-May-17 04:00N 19°13' W 096°08'0 0.0
2018-May-17 03:27N 19°13' W 096°08'0 0.0
2018-May-17 03:00N 19°13' W 096°08'0 0.0
2018-May-17 02:27N 19°13' W 096°08'0 0.0
2018-May-17 01:45N 19°13' W 096°08'0 0.0
2018-May-17 01:30N 19°13' W 096°08'0 0.0
2018-May-17 00:57N 19°13' W 096°08'0 0.0
2018-May-17 00:27N 19°13' W 096°08'0 0.0
2018-May-16 23:57N 19°13' W 096°08'0 0.0
2018-May-16 23:21N 19°13' W 096°08'0 0.0
2018-May-16 23:00N 19°13' W 096°08'0 0.0
2018-May-16 22:24N 19°13' W 096°08'0 0.0
2018-May-16 21:54N 19°13' W 096°08'0 0.0
2018-May-16 21:15N 19°13' W 096°08'0 0.0
2018-May-16 21:00N 19°13' W 096°08'0 0.0
2018-May-16 20:30N 19°13' W 096°08'0 0.0
2018-May-16 19:54N 19°13' W 096°08'0 0.0
2018-May-16 19:30N 19°13' W 096°08'0 0.0
2018-May-16 18:54N 19°13' W 096°08'0 0.0
2018-May-16 18:18N 19°13' W 096°08'0 0.0
2018-May-16 18:00N 19°13' W 096°08'0 0.0
2018-May-16 17:30N 19°13' W 096°08'0 0.0
2018-May-16 17:00N 19°13' W 096°08'0 0.0
2018-May-16 16:30N 19°13' W 096°08'0 0.7
2018-May-16 16:00N 19°12' W 096°08'4 7.3
2018-May-16 15:30N 19°12' W 096°04'4 8.1
2018-May-16 14:58N 19°13' W 095°60'510.8
2018-May-16 14:30N 19°14' W 095°55'713.7
2018-May-16 14:00N 19°15' W 095°47'4019.7
2018-May-16 12:00N 19°36' W 095°12'5418.1 100 / 81012.510.8 26.021.727.6
2018-May-16 09:00N 20°06' W 094°24'50918.9 080 / 111011.710.8 25.220.328.8
2018-May-15 06:00N 23°12' W 085°54'12220.3 190 / 151011.010.8 26.521.529.0
2018-May-15 00:00N 23°24' W 083°42'23319.4 180 / 121011.8 5.4 26.226.227.4
2018-May-14 12:00N 24°42' W 079°42'116 3.0 130 / 201013.810.8 25.722.027.6
2018-May-12 21:00N 26°30' W 078°54'6220.7 050 / 141018.8 5.4 24.824.827.2
2018-May-12 18:00N 27°30' W 079°12'6622.0 080 / 151020.410.8 25.020.727.4
2018-May-12 15:00N 28°36' W 079°12'6421.2 080 / 101022.210.8 25.517.227.1
2018-May-12 12:00N 29°36' W 079°36'9519.5 110 / 61021.110.8 25.917.727.7
2018-May-12 07:08N 31°05' W 080°12'321.1
2018-May-12 06:58N 31°09' W 080°13'1021.3
2018-May-12 06:30N 31°18' W 080°18'1121.4
2018-May-12 06:00N 31°27' W 080°23'3413.7
2018-May-12 06:00N 31°24' W 080°24'1427.8 160 / 121019.410.8 23.421.323.0
2018-May-12 05:30N 31°37' W 080°29'917.8
2018-May-12 05:00N 31°45' W 080°33'815.2
2018-May-12 04:30N 31°52' W 080°37'714.6
2018-May-12 04:00N 31°58' W 080°42'612.5
2018-May-12 03:30N 32°01' W 080°48'612.2
2018-May-12 03:00N 32°02' W 080°55'611.8
2018-May-12 02:30N 32°06' W 081°01'4 7.6
2018-May-12 02:00N 32°05' W 081°05'3 5.9
2018-May-12 01:30N 32°07' W 081°08'0 0.6
2018-May-12 01:00N 32°07' W 081°08'0 0.0
2018-May-12 00:28N 32°07' W 081°08'0 0.0
2018-May-11 23:58N 32°07' W 081°08'0 0.0
2018-May-11 23:28N 32°07' W 081°08'0 0.0
2018-May-11 22:52N 32°07' W 081°08'0 0.0
2018-May-11 22:28N 32°07' W 081°08'0 0.0
2018-May-11 21:52N 32°07' W 081°08'0 0.0
2018-May-11 21:28N 32°07' W 081°08'0 0.0
2018-May-11 20:52N 32°07' W 081°08'0 0.0
2018-May-11 20:28N 32°07' W 081°08'0 0.0
2018-May-11 19:58N 32°07' W 081°08'0 0.0
2018-May-11 19:28N 32°07' W 081°08'0 0.0
2018-May-11 18:58N 32°07' W 081°08'0 0.0
2018-May-11 18:28N 32°07' W 081°08'  

Dump ship's entire track history